Mississagi — CFG8050 — position and weather

sailwx.info

Track history (hours):
 
Tides and Currents Weather Stations Pressure Air Temp Water Temp Dewpoint Dewpoint Depression Visibility Wind Speed Wind Dir Waves Ship Positions

Mississagi

Last reported at 2017-Sep-19 11:28 UTC. Time now 2017-Sep-20 02:21 UTC.
Position N 44°59' W 086°01'.

Length 189 m; draft 7.1 m.

Type: Cargo ship. MMSI: 316004940.

Date/timePositionNaut miles runAvg speedWind from/ knotsBaromVisibWave heightAir tempDewpointWater temp
2017-Sep-19 11:28N 44°59' W 086°01'2411.1
2017-Sep-19 09:17N 45°18' W 085°40'311.3
2017-Sep-19 09:00N 45°21' W 085°37'611.2
2017-Sep-19 08:30N 45°25' W 085°32'611.1
2017-Sep-19 08:00N 45°29' W 085°27'611.2
2017-Sep-19 07:30N 45°34' W 085°23'611.3
2017-Sep-19 07:00N 45°38' W 085°17'611.3
2017-Sep-19 06:30N 45°42' W 085°12'5 9.2
2017-Sep-19 06:00N 45°46' W 085°09'4 7.9
2017-Sep-19 05:30N 45°50' W 085°06'611.2
2017-Sep-19 05:00N 45°50' W 084°58'611.4
2017-Sep-19 04:30N 45°49' W 084°50'611.2
2017-Sep-19 04:00N 45°49' W 084°42'611.3
2017-Sep-19 03:30N 45°51' W 084°34'611.4
2017-Sep-19 03:00N 45°52' W 084°27'611.4
2017-Sep-19 02:30N 45°53' W 084°18'611.2
2017-Sep-19 01:59N 45°54' W 084°10'511.3
2017-Sep-19 01:30N 45°55' W 084°03'611.0
2017-Sep-19 01:00N 45°56' W 083°55'510.0
2017-Sep-19 00:30N 46°01' W 083°52'27 2.0
2017-Sep-18 10:37N 45°53' W 083°14'211.3
2017-Sep-18 10:25N 45°50' W 083°14'711.7
2017-Sep-18 09:50N 45°44' W 083°13'411.6
2017-Sep-18 09:29N 45°40' W 083°13'711.5
2017-Sep-18 08:54N 45°33' W 083°11'  
2017-Sep-15 04:30N 45°22' W 083°02'610.9
2017-Sep-15 03:59N 45°28' W 083°04'511.0
2017-Sep-15 03:30N 45°33' W 083°07'710.9
2017-Sep-15 02:50N 45°40' W 083°09'410.8
2017-Sep-15 02:30N 45°43' W 083°11'710.9
2017-Sep-15 01:51N 45°50' W 083°14'410.3
2017-Sep-15 01:30N 45°53' W 083°15'2 3.2
2017-Sep-15 01:00N 45°55' W 083°13'0 0.0
2017-Sep-15 00:30N 45°55' W 083°13'0 0.0
2017-Sep-15 00:00N 45°55' W 083°13'0 0.0
2017-Sep-14 23:30N 45°55' W 083°13'0 0.0
2017-Sep-14 23:00N 45°55' W 083°13'0 0.0
2017-Sep-14 22:30N 45°55' W 083°13'0 0.0
2017-Sep-14 22:00N 45°55' W 083°13'0 0.0
2017-Sep-14 21:30N 45°55' W 083°13'0 0.0
2017-Sep-14 20:30N 45°55' W 083°13'0 0.0
2017-Sep-14 20:00N 45°55' W 083°13'0 0.0
2017-Sep-14 19:23N 45°55' W 083°13'0 0.0
2017-Sep-14 19:00N 45°55' W 083°13'0 0.0
2017-Sep-14 18:30N 45°55' W 083°13'0 0.0
2017-Sep-14 18:00N 45°55' W 083°13'0 0.0
2017-Sep-14 17:30N 45°55' W 083°13'0 0.0
2017-Sep-14 17:00N 45°55' W 083°13'0 0.0
2017-Sep-14 16:29N 45°55' W 083°13'0 0.0
2017-Sep-14 16:00N 45°55' W 083°13'0 0.4
2017-Sep-14 15:29N 45°55' W 083°13'4 6.9
2017-Sep-14 14:58N 45°52' W 083°14'512.0
2017-Sep-14 14:30N 45°46' W 083°12'612.0
2017-Sep-14 13:59N 45°40' W 083°10'612.0
2017-Sep-14 13:30N 45°35' W 083°07'  
Track history (hours):
 
Tides and Currents Weather Stations Pressure Air Temp Water Temp Dewpoint Dewpoint Depression Visibility Wind Speed Wind Dir Waves Ship Positions

Mississagi

Last reported at 2017-Sep-19 11:28 UTC. Time now 2017-Sep-20 02:21 UTC.
Position N 44°59' W 086°01'.

Length 189 m; draft 7.1 m.

Type: Cargo ship. MMSI: 316004940.

Date/timePositionNaut miles runAvg speedWind from/ knotsBaromVisibWave heightAir tempDewpointWater temp
2017-Sep-19 11:28N 44°59' W 086°01'2411.1
2017-Sep-19 09:17N 45°18' W 085°40'311.3
2017-Sep-19 09:00N 45°21' W 085°37'611.2
2017-Sep-19 08:30N 45°25' W 085°32'611.1
2017-Sep-19 08:00N 45°29' W 085°27'611.2
2017-Sep-19 07:30N 45°34' W 085°23'611.3
2017-Sep-19 07:00N 45°38' W 085°17'611.3
2017-Sep-19 06:30N 45°42' W 085°12'5 9.2
2017-Sep-19 06:00N 45°46' W 085°09'4 7.9
2017-Sep-19 05:30N 45°50' W 085°06'611.2
2017-Sep-19 05:00N 45°50' W 084°58'611.4
2017-Sep-19 04:30N 45°49' W 084°50'611.2
2017-Sep-19 04:00N 45°49' W 084°42'611.3
2017-Sep-19 03:30N 45°51' W 084°34'611.4
2017-Sep-19 03:00N 45°52' W 084°27'611.4
2017-Sep-19 02:30N 45°53' W 084°18'611.2
2017-Sep-19 01:59N 45°54' W 084°10'511.3
2017-Sep-19 01:30N 45°55' W 084°03'611.0
2017-Sep-19 01:00N 45°56' W 083°55'510.0
2017-Sep-19 00:30N 46°01' W 083°52'27 2.0
2017-Sep-18 10:37N 45°53' W 083°14'211.3
2017-Sep-18 10:25N 45°50' W 083°14'711.7
2017-Sep-18 09:50N 45°44' W 083°13'411.6
2017-Sep-18 09:29N 45°40' W 083°13'711.5
2017-Sep-18 08:54N 45°33' W 083°11'  
2017-Sep-15 04:30N 45°22' W 083°02'610.9
2017-Sep-15 03:59N 45°28' W 083°04'511.0
2017-Sep-15 03:30N 45°33' W 083°07'710.9
2017-Sep-15 02:50N 45°40' W 083°09'410.8
2017-Sep-15 02:30N 45°43' W 083°11'710.9
2017-Sep-15 01:51N 45°50' W 083°14'410.3
2017-Sep-15 01:30N 45°53' W 083°15'2 3.2
2017-Sep-15 01:00N 45°55' W 083°13'0 0.0
2017-Sep-15 00:30N 45°55' W 083°13'0 0.0
2017-Sep-15 00:00N 45°55' W 083°13'0 0.0
2017-Sep-14 23:30N 45°55' W 083°13'0 0.0
2017-Sep-14 23:00N 45°55' W 083°13'0 0.0
2017-Sep-14 22:30N 45°55' W 083°13'0 0.0
2017-Sep-14 22:00N 45°55' W 083°13'0 0.0
2017-Sep-14 21:30N 45°55' W 083°13'0 0.0
2017-Sep-14 20:30N 45°55' W 083°13'0 0.0
2017-Sep-14 20:00N 45°55' W 083°13'0 0.0
2017-Sep-14 19:23N 45°55' W 083°13'0 0.0
2017-Sep-14 19:00N 45°55' W 083°13'0 0.0
2017-Sep-14 18:30N 45°55' W 083°13'0 0.0
2017-Sep-14 18:00N 45°55' W 083°13'0 0.0
2017-Sep-14 17:30N 45°55' W 083°13'0 0.0
2017-Sep-14 17:00N 45°55' W 083°13'0 0.0
2017-Sep-14 16:29N 45°55' W 083°13'0 0.0
2017-Sep-14 16:00N 45°55' W 083°13'0 0.4
2017-Sep-14 15:29N 45°55' W 083°13'4 6.9
2017-Sep-14 14:58N 45°52' W 083°14'512.0
2017-Sep-14 14:30N 45°46' W 083°12'612.0
2017-Sep-14 13:59N 45°40' W 083°10'612.0
2017-Sep-14 13:30N 45°35' W 083°07'  

Dump ship's entire track history